sensor_id;sensor_type;location;lat;lon;timestamp;P1;durP1;ratioP1;P2;durP2;ratioP2
43070;SDS011;36278;47.952;21.714;2024-01-06T00:02:05;26.20;;;17.03;;
43070;SDS011;36278;47.952;21.714;2024-01-06T00:04:31;34.93;;;22.57;;
43070;SDS011;36278;47.952;21.714;2024-01-06T00:06:56;28.77;;;18.23;;
43070;SDS011;36278;47.952;21.714;2024-01-06T00:09:22;25.87;;;16.87;;
43070;SDS011;36278;47.952;21.714;2024-01-06T00:11:48;27.73;;;18.37;;
43070;SDS011;36278;47.952;21.714;2024-01-06T00:14:14;26.03;;;17.80;;
43070;SDS011;36278;47.952;21.714;2024-01-06T00:16:40;25.50;;;17.70;;
43070;SDS011;36278;47.952;21.714;2024-01-06T00:19:05;27.97;;;17.37;;
43070;SDS011;36278;47.952;21.714;2024-01-06T00:21:31;28.17;;;17.73;;
43070;SDS011;36278;47.952;21.714;2024-01-06T00:23:56;27.30;;;17.40;;
43070;SDS011;36278;47.952;21.714;2024-01-06T00:26:22;25.90;;;17.07;;
43070;SDS011;36278;47.952;21.714;2024-01-06T00:28:48;24.93;;;16.57;;
43070;SDS011;36278;47.952;21.714;2024-01-06T00:31:15;26.77;;;16.63;;
43070;SDS011;36278;47.952;21.714;2024-01-06T00:33:42;28.00;;;16.40;;
43070;SDS011;36278;47.952;21.714;2024-01-06T00:36:08;28.97;;;17.77;;
43070;SDS011;36278;47.952;21.714;2024-01-06T00:38:35;25.63;;;17.23;;
43070;SDS011;36278;47.952;21.714;2024-01-06T00:41:03;25.00;;;17.67;;
43070;SDS011;36278;47.952;21.714;2024-01-06T00:43:29;25.63;;;16.30;;
43070;SDS011;36278;47.952;21.714;2024-01-06T00:45:55;32.53;;;17.97;;
43070;SDS011;36278;47.952;21.714;2024-01-06T00:48:20;25.33;;;17.37;;
43070;SDS011;36278;47.952;21.714;2024-01-06T00:50:46;22.13;;;15.97;;
43070;SDS011;36278;47.952;21.714;2024-01-06T00:53:11;26.00;;;16.40;;
43070;SDS011;36278;47.952;21.714;2024-01-06T00:55:38;23.07;;;15.97;;
43070;SDS011;36278;47.952;21.714;2024-01-06T00:58:03;25.80;;;17.47;;
43070;SDS011;36278;47.952;21.714;2024-01-06T01:00:29;27.80;;;16.63;;
43070;SDS011;36278;47.952;21.714;2024-01-06T01:02:54;23.00;;;15.83;;
43070;SDS011;36278;47.952;21.714;2024-01-06T01:05:20;21.50;;;14.97;;
43070;SDS011;36278;47.952;21.714;2024-01-06T01:07:46;22.57;;;16.27;;
43070;SDS011;36278;47.952;21.714;2024-01-06T01:10:11;24.20;;;16.27;;
43070;SDS011;36278;47.952;21.714;2024-01-06T01:12:37;26.43;;;16.87;;
43070;SDS011;36278;47.952;21.714;2024-01-06T01:15:02;29.33;;;17.20;;
43070;SDS011;36278;47.952;21.714;2024-01-06T01:17:28;22.63;;;15.53;;
43070;SDS011;36278;47.952;21.714;2024-01-06T01:19:54;25.67;;;16.77;;
43070;SDS011;36278;47.952;21.714;2024-01-06T01:22:20;26.07;;;16.57;;
43070;SDS011;36278;47.952;21.714;2024-01-06T01:24:46;21.70;;;14.73;;
43070;SDS011;36278;47.952;21.714;2024-01-06T01:27:12;24.73;;;15.70;;
43070;SDS011;36278;47.952;21.714;2024-01-06T01:29:37;22.90;;;15.20;;
43070;SDS011;36278;47.952;21.714;2024-01-06T01:32:03;21.77;;;15.17;;
43070;SDS011;36278;47.952;21.714;2024-01-06T01:34:29;25.70;;;14.83;;
43070;SDS011;36278;47.952;21.714;2024-01-06T01:36:54;21.93;;;15.43;;
43070;SDS011;36278;47.952;21.714;2024-01-06T01:39:20;26.13;;;15.13;;
43070;SDS011;36278;47.952;21.714;2024-01-06T01:41:46;20.07;;;13.67;;
43070;SDS011;36278;47.952;21.714;2024-01-06T01:44:12;23.50;;;15.10;;
43070;SDS011;36278;47.952;21.714;2024-01-06T01:46:37;20.77;;;13.83;;
43070;SDS011;36278;47.952;21.714;2024-01-06T01:49:04;20.23;;;13.63;;
43070;SDS011;36278;47.952;21.714;2024-01-06T01:51:31;24.00;;;14.47;;
43070;SDS011;36278;47.952;21.714;2024-01-06T01:53:59;23.93;;;14.07;;
43070;SDS011;36278;47.952;21.714;2024-01-06T01:56:31;23.60;;;14.70;;
43070;SDS011;36278;47.952;21.714;2024-01-06T01:59:01;20.50;;;13.70;;
43070;SDS011;36278;47.952;21.714;2024-01-06T02:01:36;19.27;;;13.60;;
43070;SDS011;36278;47.952;21.714;2024-01-06T02:04:02;22.63;;;14.07;;
43070;SDS011;36278;47.952;21.714;2024-01-06T02:06:28;21.93;;;14.03;;
43070;SDS011;36278;47.952;21.714;2024-01-06T02:08:53;20.87;;;13.50;;
43070;SDS011;36278;47.952;21.714;2024-01-06T02:11:19;17.53;;;11.70;;
43070;SDS011;36278;47.952;21.714;2024-01-06T02:13:45;22.37;;;13.50;;
43070;SDS011;36278;47.952;21.714;2024-01-06T02:16:10;22.50;;;13.90;;
43070;SDS011;36278;47.952;21.714;2024-01-06T02:18:36;20.70;;;13.53;;
43070;SDS011;36278;47.952;21.714;2024-01-06T02:21:01;23.53;;;13.50;;
43070;SDS011;36278;47.952;21.714;2024-01-06T02:23:28;21.83;;;13.97;;
43070;SDS011;36278;47.952;21.714;2024-01-06T02:25:55;22.83;;;12.33;;
43070;SDS011;36278;47.952;21.714;2024-01-06T02:28:21;18.60;;;12.30;;
43070;SDS011;36278;47.952;21.714;2024-01-06T02:30:47;18.60;;;12.70;;
43070;SDS011;36278;47.952;21.714;2024-01-06T02:33:14;16.73;;;11.87;;
43070;SDS011;36278;47.952;21.714;2024-01-06T02:35:39;19.63;;;12.27;;
43070;SDS011;36278;47.952;21.714;2024-01-06T02:38:06;18.53;;;11.37;;
43070;SDS011;36278;47.952;21.714;2024-01-06T02:40:33;16.40;;;10.97;;
43070;SDS011;36278;47.952;21.714;2024-01-06T02:42:59;18.80;;;11.27;;
43070;SDS011;36278;47.952;21.714;2024-01-06T02:45:24;16.63;;;11.40;;
43070;SDS011;36278;47.952;21.714;2024-01-06T02:47:50;20.93;;;12.17;;
43070;SDS011;36278;47.952;21.714;2024-01-06T02:50:16;19.40;;;12.07;;
43070;SDS011;36278;47.952;21.714;2024-01-06T02:52:42;18.97;;;11.83;;
43070;SDS011;36278;47.952;21.714;2024-01-06T02:55:08;17.67;;;11.43;;
43070;SDS011;36278;47.952;21.714;2024-01-06T02:57:34;21.13;;;12.63;;
43070;SDS011;36278;47.952;21.714;2024-01-06T03:00:00;18.10;;;12.00;;
43070;SDS011;36278;47.952;21.714;2024-01-06T03:02:26;19.93;;;12.27;;
43070;SDS011;36278;47.952;21.714;2024-01-06T03:04:52;19.60;;;11.57;;
43070;SDS011;36278;47.952;21.714;2024-01-06T03:07:17;15.93;;;11.40;;
43070;SDS011;36278;47.952;21.714;2024-01-06T03:09:43;17.77;;;11.53;;
43070;SDS011;36278;47.952;21.714;2024-01-06T03:12:08;17.40;;;10.93;;
43070;SDS011;36278;47.952;21.714;2024-01-06T03:14:35;20.80;;;10.83;;
43070;SDS011;36278;47.952;21.714;2024-01-06T03:17:00;16.13;;;10.47;;
43070;SDS011;36278;47.952;21.714;2024-01-06T03:19:26;18.47;;;10.77;;
43070;SDS011;36278;47.952;21.714;2024-01-06T03:21:52;17.60;;;11.00;;
43070;SDS011;36278;47.952;21.714;2024-01-06T03:24:18;16.00;;;10.47;;
43070;SDS011;36278;47.952;21.714;2024-01-06T03:26:45;15.07;;;10.83;;
43070;SDS011;36278;47.952;21.714;2024-01-06T03:29:10;14.87;;;10.53;;
43070;SDS011;36278;47.952;21.714;2024-01-06T03:31:36;16.40;;;9.70;;
43070;SDS011;36278;47.952;21.714;2024-01-06T03:34:02;17.33;;;10.03;;
43070;SDS011;36278;47.952;21.714;2024-01-06T03:36:27;14.33;;;9.80;;
43070;SDS011;36278;47.952;21.714;2024-01-06T03:38:53;14.67;;;9.67;;
43070;SDS011;36278;47.952;21.714;2024-01-06T03:41:18;16.30;;;9.93;;
43070;SDS011;36278;47.952;21.714;2024-01-06T03:43:44;15.60;;;9.83;;
43070;SDS011;36278;47.952;21.714;2024-01-06T03:46:10;15.43;;;9.67;;
43070;SDS011;36278;47.952;21.714;2024-01-06T03:48:35;13.30;;;9.40;;
43070;SDS011;36278;47.952;21.714;2024-01-06T03:51:02;15.00;;;8.90;;
43070;SDS011;36278;47.952;21.714;2024-01-06T03:53:27;14.20;;;9.57;;
43070;SDS011;36278;47.952;21.714;2024-01-06T03:55:53;15.37;;;8.97;;
43070;SDS011;36278;47.952;21.714;2024-01-06T03:58:18;17.10;;;9.53;;
43070;SDS011;36278;47.952;21.714;2024-01-06T04:00:44;15.80;;;9.00;;
43070;SDS011;36278;47.952;21.714;2024-01-06T04:03:09;12.83;;;9.27;;
43070;SDS011;36278;47.952;21.714;2024-01-06T04:05:35;12.37;;;7.67;;
43070;SDS011;36278;47.952;21.714;2024-01-06T04:08:00;15.50;;;9.33;;
43070;SDS011;36278;47.952;21.714;2024-01-06T04:10:26;12.33;;;8.23;;
43070;SDS011;36278;47.952;21.714;2024-01-06T04:12:51;13.60;;;8.13;;
43070;SDS011;36278;47.952;21.714;2024-01-06T04:15:17;15.33;;;8.60;;
43070;SDS011;36278;47.952;21.714;2024-01-06T04:17:42;13.37;;;8.23;;
43070;SDS011;36278;47.952;21.714;2024-01-06T04:20:08;10.53;;;7.70;;
43070;SDS011;36278;47.952;21.714;2024-01-06T04:22:37;16.20;;;7.67;;
43070;SDS011;36278;47.952;21.714;2024-01-06T04:25:04;15.40;;;8.40;;
43070;SDS011;36278;47.952;21.714;2024-01-06T04:27:29;13.17;;;8.23;;
43070;SDS011;36278;47.952;21.714;2024-01-06T04:29:56;13.77;;;7.87;;
43070;SDS011;36278;47.952;21.714;2024-01-06T04:32:22;14.47;;;7.97;;
43070;SDS011;36278;47.952;21.714;2024-01-06T04:34:47;12.70;;;7.93;;
43070;SDS011;36278;47.952;21.714;2024-01-06T04:37:13;11.20;;;7.40;;
43070;SDS011;36278;47.952;21.714;2024-01-06T04:39:40;13.77;;;7.83;;
43070;SDS011;36278;47.952;21.714;2024-01-06T04:42:05;11.70;;;7.87;;
43070;SDS011;36278;47.952;21.714;2024-01-06T04:44:31;13.83;;;8.00;;
43070;SDS011;36278;47.952;21.714;2024-01-06T04:46:57;12.93;;;7.50;;
43070;SDS011;36278;47.952;21.714;2024-01-06T04:49:22;16.27;;;7.53;;
43070;SDS011;36278;47.952;21.714;2024-01-06T04:51:48;11.87;;;7.47;;
43070;SDS011;36278;47.952;21.714;2024-01-06T04:54:13;13.83;;;7.53;;
43070;SDS011;36278;47.952;21.714;2024-01-06T04:56:39;17.10;;;8.60;;
43070;SDS011;36278;47.952;21.714;2024-01-06T04:59:04;14.27;;;7.73;;
43070;SDS011;36278;47.952;21.714;2024-01-06T05:01:30;11.33;;;7.90;;
43070;SDS011;36278;47.952;21.714;2024-01-06T05:03:56;13.00;;;8.17;;
43070;SDS011;36278;47.952;21.714;2024-01-06T05:06:23;14.63;;;8.60;;
43070;SDS011;36278;47.952;21.714;2024-01-06T05:08:48;15.70;;;8.97;;
43070;SDS011;36278;47.952;21.714;2024-01-06T05:11:14;16.00;;;8.77;;
43070;SDS011;36278;47.952;21.714;2024-01-06T05:13:39;16.77;;;8.93;;
43070;SDS011;36278;47.952;21.714;2024-01-06T05:16:06;15.13;;;9.13;;
43070;SDS011;36278;47.952;21.714;2024-01-06T05:18:32;21.30;;;8.70;;
43070;SDS011;36278;47.952;21.714;2024-01-06T05:20:58;14.23;;;8.23;;
43070;SDS011;36278;47.952;21.714;2024-01-06T05:23:24;12.30;;;7.80;;
43070;SDS011;36278;47.952;21.714;2024-01-06T05:25:49;13.80;;;8.27;;
43070;SDS011;36278;47.952;21.714;2024-01-06T05:28:15;15.47;;;7.87;;
43070;SDS011;36278;47.952;21.714;2024-01-06T05:30:40;11.80;;;7.87;;
43070;SDS011;36278;47.952;21.714;2024-01-06T05:33:08;13.77;;;7.33;;
43070;SDS011;36278;47.952;21.714;2024-01-06T05:35:34;15.83;;;7.60;;
43070;SDS011;36278;47.952;21.714;2024-01-06T05:38:00;11.07;;;7.53;;
43070;SDS011;36278;47.952;21.714;2024-01-06T05:40:26;12.37;;;7.30;;
43070;SDS011;36278;47.952;21.714;2024-01-06T05:42:51;18.23;;;11.97;;
43070;SDS011;36278;47.952;21.714;2024-01-06T05:45:20;12.70;;;8.03;;
43070;SDS011;36278;47.952;21.714;2024-01-06T05:47:46;11.97;;;7.67;;
43070;SDS011;36278;47.952;21.714;2024-01-06T05:50:11;12.20;;;7.37;;
43070;SDS011;36278;47.952;21.714;2024-01-06T05:52:40;13.60;;;7.23;;
43070;SDS011;36278;47.952;21.714;2024-01-06T05:55:06;12.30;;;7.10;;
43070;SDS011;36278;47.952;21.714;2024-01-06T05:57:31;13.97;;;8.63;;
43070;SDS011;36278;47.952;21.714;2024-01-06T05:59:57;17.87;;;8.83;;
43070;SDS011;36278;47.952;21.714;2024-01-06T06:02:22;12.03;;;7.97;;
43070;SDS011;36278;47.952;21.714;2024-01-06T06:04:48;14.43;;;8.57;;
43070;SDS011;36278;47.952;21.714;2024-01-06T06:07:13;15.50;;;8.50;;
43070;SDS011;36278;47.952;21.714;2024-01-06T06:09:39;13.70;;;9.10;;
43070;SDS011;36278;47.952;21.714;2024-01-06T06:12:05;14.10;;;9.27;;
43070;SDS011;36278;47.952;21.714;2024-01-06T06:14:31;13.27;;;8.57;;
43070;SDS011;36278;47.952;21.714;2024-01-06T06:16:56;14.93;;;8.33;;
43070;SDS011;36278;47.952;21.714;2024-01-06T06:19:22;11.67;;;8.30;;
43070;SDS011;36278;47.952;21.714;2024-01-06T06:21:47;16.80;;;8.10;;
43070;SDS011;36278;47.952;21.714;2024-01-06T06:24:13;14.60;;;7.77;;
43070;SDS011;36278;47.952;21.714;2024-01-06T06:26:38;16.37;;;7.90;;
43070;SDS011;36278;47.952;21.714;2024-01-06T06:29:05;12.57;;;7.97;;
43070;SDS011;36278;47.952;21.714;2024-01-06T06:31:31;13.80;;;8.03;;
43070;SDS011;36278;47.952;21.714;2024-01-06T06:33:56;14.83;;;7.90;;
43070;SDS011;36278;47.952;21.714;2024-01-06T06:36:22;12.93;;;8.60;;
43070;SDS011;36278;47.952;21.714;2024-01-06T06:38:47;12.83;;;7.77;;
43070;SDS011;36278;47.952;21.714;2024-01-06T06:41:13;14.50;;;7.73;;
43070;SDS011;36278;47.952;21.714;2024-01-06T06:43:38;11.70;;;7.63;;
43070;SDS011;36278;47.952;21.714;2024-01-06T06:46:04;13.80;;;7.53;;
43070;SDS011;36278;47.952;21.714;2024-01-06T06:48:29;16.07;;;8.20;;
43070;SDS011;36278;47.952;21.714;2024-01-06T06:50:55;14.63;;;7.30;;
43070;SDS011;36278;47.952;21.714;2024-01-06T06:53:20;14.03;;;8.60;;
43070;SDS011;36278;47.952;21.714;2024-01-06T06:55:46;15.73;;;9.07;;
43070;SDS011;36278;47.952;21.714;2024-01-06T06:58:12;14.87;;;8.23;;
43070;SDS011;36278;47.952;21.714;2024-01-06T07:00:37;15.53;;;8.53;;
43070;SDS011;36278;47.952;21.714;2024-01-06T07:03:03;14.00;;;8.40;;
43070;SDS011;36278;47.952;21.714;2024-01-06T07:05:29;13.57;;;8.20;;
43070;SDS011;36278;47.952;21.714;2024-01-06T07:07:56;14.60;;;8.17;;
43070;SDS011;36278;47.952;21.714;2024-01-06T07:10:22;15.77;;;8.47;;
43070;SDS011;36278;47.952;21.714;2024-01-06T07:12:47;17.73;;;8.57;;
43070;SDS011;36278;47.952;21.714;2024-01-06T07:15:13;13.13;;;8.73;;
43070;SDS011;36278;47.952;21.714;2024-01-06T07:17:38;15.03;;;9.07;;
43070;SDS011;36278;47.952;21.714;2024-01-06T07:20:05;19.57;;;8.77;;
43070;SDS011;36278;47.952;21.714;2024-01-06T07:22:32;15.13;;;8.80;;
43070;SDS011;36278;47.952;21.714;2024-01-06T07:24:59;18.97;;;9.63;;
43070;SDS011;36278;47.952;21.714;2024-01-06T07:27:25;15.97;;;9.60;;
43070;SDS011;36278;47.952;21.714;2024-01-06T07:29:51;14.57;;;9.17;;
43070;SDS011;36278;47.952;21.714;2024-01-06T07:32:16;20.33;;;13.40;;
43070;SDS011;36278;47.952;21.714;2024-01-06T07:34:42;35.37;;;19.73;;
43070;SDS011;36278;47.952;21.714;2024-01-06T07:37:08;31.80;;;19.57;;
43070;SDS011;36278;47.952;21.714;2024-01-06T07:39:34;27.80;;;17.80;;
43070;SDS011;36278;47.952;21.714;2024-01-06T07:41:59;25.50;;;17.47;;
43070;SDS011;36278;47.952;21.714;2024-01-06T07:44:25;26.63;;;15.77;;
43070;SDS011;36278;47.952;21.714;2024-01-06T07:46:51;31.90;;;16.50;;
43070;SDS011;36278;47.952;21.714;2024-01-06T07:49:17;21.30;;;13.63;;
43070;SDS011;36278;47.952;21.714;2024-01-06T07:51:43;18.20;;;11.60;;
43070;SDS011;36278;47.952;21.714;2024-01-06T07:54:09;22.27;;;12.43;;
43070;SDS011;36278;47.952;21.714;2024-01-06T07:56:36;22.50;;;11.83;;
43070;SDS011;36278;47.952;21.714;2024-01-06T07:59:02;18.43;;;10.70;;
43070;SDS011;36278;47.952;21.714;2024-01-06T08:01:28;17.87;;;10.87;;
43070;SDS011;36278;47.952;21.714;2024-01-06T08:03:53;15.93;;;10.23;;
43070;SDS011;36278;47.952;21.714;2024-01-06T08:06:19;16.80;;;9.83;;
43070;SDS011;36278;47.952;21.714;2024-01-06T08:08:44;15.53;;;9.80;;
43070;SDS011;36278;47.952;21.714;2024-01-06T08:11:11;18.53;;;10.43;;
43070;SDS011;36278;47.952;21.714;2024-01-06T08:13:36;13.67;;;9.47;;
43070;SDS011;36278;47.952;21.714;2024-01-06T08:16:02;16.23;;;9.60;;
43070;SDS011;36278;47.952;21.714;2024-01-06T08:18:28;20.17;;;12.43;;
43070;SDS011;36278;47.952;21.714;2024-01-06T08:20:53;18.63;;;11.27;;
43070;SDS011;36278;47.952;21.714;2024-01-06T08:23:19;18.43;;;12.27;;
43070;SDS011;36278;47.952;21.714;2024-01-06T08:25:45;19.00;;;11.40;;
43070;SDS011;36278;47.952;21.714;2024-01-06T08:28:11;19.60;;;11.77;;
43070;SDS011;36278;47.952;21.714;2024-01-06T08:30:37;19.50;;;11.53;;
43070;SDS011;36278;47.952;21.714;2024-01-06T08:33:03;16.80;;;11.23;;
43070;SDS011;36278;47.952;21.714;2024-01-06T08:35:29;18.53;;;11.57;;
43070;SDS011;36278;47.952;21.714;2024-01-06T08:37:55;18.20;;;11.97;;
43070;SDS011;36278;47.952;21.714;2024-01-06T08:40:20;23.53;;;12.77;;
43070;SDS011;36278;47.952;21.714;2024-01-06T08:42:46;17.97;;;10.93;;
43070;SDS011;36278;47.952;21.714;2024-01-06T08:45:11;21.50;;;12.30;;
43070;SDS011;36278;47.952;21.714;2024-01-06T08:47:37;19.03;;;13.23;;
43070;SDS011;36278;47.952;21.714;2024-01-06T08:50:02;20.40;;;12.13;;
43070;SDS011;36278;47.952;21.714;2024-01-06T08:52:29;21.43;;;12.47;;
43070;SDS011;36278;47.952;21.714;2024-01-06T08:54:55;20.13;;;13.13;;
43070;SDS011;36278;47.952;21.714;2024-01-06T08:57:20;19.83;;;12.10;;
43070;SDS011;36278;47.952;21.714;2024-01-06T08:59:46;17.57;;;10.77;;
43070;SDS011;36278;47.952;21.714;2024-01-06T09:02:11;13.53;;;10.03;;
43070;SDS011;36278;47.952;21.714;2024-01-06T09:04:37;18.90;;;10.90;;
43070;SDS011;36278;47.952;21.714;2024-01-06T09:07:03;18.47;;;11.13;;
43070;SDS011;36278;47.952;21.714;2024-01-06T09:09:29;17.27;;;11.50;;
43070;SDS011;36278;47.952;21.714;2024-01-06T09:11:55;27.77;;;17.50;;
43070;SDS011;36278;47.952;21.714;2024-01-06T09:14:20;26.73;;;21.37;;
43070;SDS011;36278;47.952;21.714;2024-01-06T09:16:45;39.13;;;28.57;;
43070;SDS011;36278;47.952;21.714;2024-01-06T09:19:11;47.50;;;30.63;;
43070;SDS011;36278;47.952;21.714;2024-01-06T09:21:36;27.00;;;16.70;;
43070;SDS011;36278;47.952;21.714;2024-01-06T09:24:02;20.93;;;14.70;;
43070;SDS011;36278;47.952;21.714;2024-01-06T09:26:31;23.13;;;14.40;;
43070;SDS011;36278;47.952;21.714;2024-01-06T09:28:59;18.20;;;12.23;;
43070;SDS011;36278;47.952;21.714;2024-01-06T09:31:26;17.70;;;11.67;;
43070;SDS011;36278;47.952;21.714;2024-01-06T09:33:51;19.77;;;12.53;;
43070;SDS011;36278;47.952;21.714;2024-01-06T09:36:17;16.87;;;12.00;;
43070;SDS011;36278;47.952;21.714;2024-01-06T09:38:42;17.07;;;11.73;;
43070;SDS011;36278;47.952;21.714;2024-01-06T09:41:08;18.77;;;11.40;;
43070;SDS011;36278;47.952;21.714;2024-01-06T09:43:34;15.70;;;10.37;;
43070;SDS011;36278;47.952;21.714;2024-01-06T09:46:06;17.73;;;10.00;;
43070;SDS011;36278;47.952;21.714;2024-01-06T09:48:35;13.83;;;9.40;;
43070;SDS011;36278;47.952;21.714;2024-01-06T09:51:11;16.17;;;10.03;;
43070;SDS011;36278;47.952;21.714;2024-01-06T09:53:40;14.20;;;10.37;;
43070;SDS011;36278;47.952;21.714;2024-01-06T09:56:09;16.38;;;11.00;;
43070;SDS011;36278;47.952;21.714;2024-01-06T09:58:37;23.17;;;16.47;;
43070;SDS011;36278;47.952;21.714;2024-01-06T10:01:04;30.00;;;21.73;;
43070;SDS011;36278;47.952;21.714;2024-01-06T10:03:31;33.23;;;19.63;;
43070;SDS011;36278;47.952;21.714;2024-01-06T10:05:59;24.47;;;14.67;;
43070;SDS011;36278;47.952;21.714;2024-01-06T10:08:28;16.50;;;11.07;;
43070;SDS011;36278;47.952;21.714;2024-01-06T10:10:54;18.33;;;11.00;;
43070;SDS011;36278;47.952;21.714;2024-01-06T10:13:20;19.27;;;11.97;;
43070;SDS011;36278;47.952;21.714;2024-01-06T10:15:45;14.93;;;10.90;;
43070;SDS011;36278;47.952;21.714;2024-01-06T10:18:12;22.10;;;12.97;;
43070;SDS011;36278;47.952;21.714;2024-01-06T10:20:38;36.23;;;17.83;;
43070;SDS011;36278;47.952;21.714;2024-01-06T10:23:04;39.13;;;18.37;;
43070;SDS011;36278;47.952;21.714;2024-01-06T10:25:30;37.80;;;18.20;;
43070;SDS011;36278;47.952;21.714;2024-01-06T10:27:56;29.43;;;15.73;;
43070;SDS011;36278;47.952;21.714;2024-01-06T10:30:21;28.23;;;15.30;;
43070;SDS011;36278;47.952;21.714;2024-01-06T10:32:47;20.10;;;12.30;;
43070;SDS011;36278;47.952;21.714;2024-01-06T10:35:12;20.93;;;12.37;;
43070;SDS011;36278;47.952;21.714;2024-01-06T10:37:38;18.63;;;11.50;;
43070;SDS011;36278;47.952;21.714;2024-01-06T10:40:08;18.90;;;11.83;;
43070;SDS011;36278;47.952;21.714;2024-01-06T10:42:34;17.43;;;11.87;;
43070;SDS011;36278;47.952;21.714;2024-01-06T10:45:01;19.07;;;12.30;;
43070;SDS011;36278;47.952;21.714;2024-01-06T10:47:27;18.57;;;12.20;;
43070;SDS011;36278;47.952;21.714;2024-01-06T10:49:59;18.80;;;12.87;;
43070;SDS011;36278;47.952;21.714;2024-01-06T10:52:26;21.73;;;12.93;;
43070;SDS011;36278;47.952;21.714;2024-01-06T10:54:53;20.47;;;13.23;;
43070;SDS011;36278;47.952;21.714;2024-01-06T10:57:20;18.10;;;12.97;;
43070;SDS011;36278;47.952;21.714;2024-01-06T10:59:46;20.90;;;14.17;;
43070;SDS011;36278;47.952;21.714;2024-01-06T11:02:14;18.67;;;12.27;;
43070;SDS011;36278;47.952;21.714;2024-01-06T11:04:48;17.47;;;11.57;;
43070;SDS011;36278;47.952;21.714;2024-01-06T11:07:15;15.50;;;11.57;;
43070;SDS011;36278;47.952;21.714;2024-01-06T11:12:23;16.50;;;11.93;;
43070;SDS011;36278;47.952;21.714;2024-01-06T11:14:52;16.43;;;12.33;;
43070;SDS011;36278;47.952;21.714;2024-01-06T11:20:21;25.00;;;15.70;;
43070;SDS011;36278;47.952;21.714;2024-01-06T11:22:47;20.03;;;13.87;;
43070;SDS011;36278;47.952;21.714;2024-01-06T11:25:14;24.30;;;16.23;;
43070;SDS011;36278;47.952;21.714;2024-01-06T11:27:42;19.37;;;13.80;;
43070;SDS011;36278;47.952;21.714;2024-01-06T11:30:21;15.23;;;11.50;;
43070;SDS011;36278;47.952;21.714;2024-01-06T11:32:50;17.00;;;12.17;;
43070;SDS011;36278;47.952;21.714;2024-01-06T11:35:20;19.00;;;13.27;;
43070;SDS011;36278;47.952;21.714;2024-01-06T11:43:06;27.10;;;17.63;;
43070;SDS011;36278;47.952;21.714;2024-01-06T11:45:33;25.77;;;18.40;;
43070;SDS011;36278;47.952;21.714;2024-01-06T11:48:03;21.47;;;16.37;;
43070;SDS011;36278;47.952;21.714;2024-01-06T11:50:33;21.83;;;14.33;;
43070;SDS011;36278;47.952;21.714;2024-01-06T11:53:03;16.58;;;11.57;;
43070;SDS011;36278;47.952;21.714;2024-01-06T11:55:29;17.50;;;11.77;;
43070;SDS011;36278;47.952;21.714;2024-01-06T11:57:59;16.37;;;11.47;;
43070;SDS011;36278;47.952;21.714;2024-01-06T12:00:29;18.83;;;11.97;;
43070;SDS011;36278;47.952;21.714;2024-01-06T12:02:56;21.07;;;15.30;;
43070;SDS011;36278;47.952;21.714;2024-01-06T12:05:24;20.60;;;14.47;;
43070;SDS011;36278;47.952;21.714;2024-01-06T12:07:55;21.00;;;14.53;;
43070;SDS011;36278;47.952;21.714;2024-01-06T12:10:22;15.27;;;11.10;;
43070;SDS011;36278;47.952;21.714;2024-01-06T12:12:58;20.80;;;14.07;;
43070;SDS011;36278;47.952;21.714;2024-01-06T12:15:26;21.27;;;12.70;;
43070;SDS011;36278;47.952;21.714;2024-01-06T12:17:52;17.33;;;12.20;;
43070;SDS011;36278;47.952;21.714;2024-01-06T12:20:17;14.17;;;10.47;;
43070;SDS011;36278;47.952;21.714;2024-01-06T12:22:43;15.37;;;10.50;;
43070;SDS011;36278;47.952;21.714;2024-01-06T12:25:09;15.63;;;10.87;;
43070;SDS011;36278;47.952;21.714;2024-01-06T12:27:35;16.63;;;11.17;;
43070;SDS011;36278;47.952;21.714;2024-01-06T12:30:01;22.47;;;12.60;;
43070;SDS011;36278;47.952;21.714;2024-01-06T12:32:28;17.07;;;11.63;;
43070;SDS011;36278;47.952;21.714;2024-01-06T12:34:53;24.13;;;15.10;;
43070;SDS011;36278;47.952;21.714;2024-01-06T12:37:22;21.83;;;13.83;;
43070;SDS011;36278;47.952;21.714;2024-01-06T12:39:49;18.63;;;12.80;;
43070;SDS011;36278;47.952;21.714;2024-01-06T12:42:16;16.53;;;10.73;;
43070;SDS011;36278;47.952;21.714;2024-01-06T12:44:42;18.40;;;11.50;;
43070;SDS011;36278;47.952;21.714;2024-01-06T12:47:07;15.00;;;10.53;;
43070;SDS011;36278;47.952;21.714;2024-01-06T12:49:33;15.63;;;10.43;;
43070;SDS011;36278;47.952;21.714;2024-01-06T12:51:59;14.30;;;9.43;;
43070;SDS011;36278;47.952;21.714;2024-01-06T12:54:25;13.00;;;9.17;;
43070;SDS011;36278;47.952;21.714;2024-01-06T12:56:50;13.70;;;9.30;;
43070;SDS011;36278;47.952;21.714;2024-01-06T12:59:16;11.63;;;8.70;;
43070;SDS011;36278;47.952;21.714;2024-01-06T13:01:42;15.27;;;9.43;;
43070;SDS011;36278;47.952;21.714;2024-01-06T13:04:08;14.40;;;8.60;;
43070;SDS011;36278;47.952;21.714;2024-01-06T13:06:34;12.23;;;8.90;;
43070;SDS011;36278;47.952;21.714;2024-01-06T13:08:59;14.30;;;9.00;;
43070;SDS011;36278;47.952;21.714;2024-01-06T13:11:27;13.13;;;9.27;;
43070;SDS011;36278;47.952;21.714;2024-01-06T13:13:53;14.17;;;9.00;;
43070;SDS011;36278;47.952;21.714;2024-01-06T13:16:19;14.93;;;9.13;;
43070;SDS011;36278;47.952;21.714;2024-01-06T13:18:44;14.60;;;9.43;;
43070;SDS011;36278;47.952;21.714;2024-01-06T13:21:10;12.93;;;9.30;;
43070;SDS011;36278;47.952;21.714;2024-01-06T13:23:35;12.60;;;8.50;;
43070;SDS011;36278;47.952;21.714;2024-01-06T13:26:02;11.90;;;8.60;;
43070;SDS011;36278;47.952;21.714;2024-01-06T13:28:28;13.97;;;9.23;;
43070;SDS011;36278;47.952;21.714;2024-01-06T13:30:54;11.97;;;8.50;;
43070;SDS011;36278;47.952;21.714;2024-01-06T13:33:19;17.10;;;9.13;;
43070;SDS011;36278;47.952;21.714;2024-01-06T13:35:45;12.83;;;8.77;;
43070;SDS011;36278;47.952;21.714;2024-01-06T13:38:11;15.40;;;8.67;;
43070;SDS011;36278;47.952;21.714;2024-01-06T13:40:37;11.80;;;8.17;;
43070;SDS011;36278;47.952;21.714;2024-01-06T13:43:02;13.07;;;8.60;;
43070;SDS011;36278;47.952;21.714;2024-01-06T13:45:30;15.97;;;9.03;;
43070;SDS011;36278;47.952;21.714;2024-01-06T13:47:56;13.17;;;8.30;;
43070;SDS011;36278;47.952;21.714;2024-01-06T13:50:21;14.43;;;9.47;;
43070;SDS011;36278;47.952;21.714;2024-01-06T13:52:47;13.73;;;9.87;;
43070;SDS011;36278;47.952;21.714;2024-01-06T13:55:13;17.33;;;11.70;;
43070;SDS011;36278;47.952;21.714;2024-01-06T13:57:39;15.60;;;10.37;;
43070;SDS011;36278;47.952;21.714;2024-01-06T14:00:09;16.53;;;10.10;;
43070;SDS011;36278;47.952;21.714;2024-01-06T14:02:43;12.93;;;9.23;;
43070;SDS011;36278;47.952;21.714;2024-01-06T14:05:12;14.17;;;9.37;;
43070;SDS011;36278;47.952;21.714;2024-01-06T14:07:38;12.90;;;9.47;;
43070;SDS011;36278;47.952;21.714;2024-01-06T14:10:06;13.67;;;9.90;;
43070;SDS011;36278;47.952;21.714;2024-01-06T14:12:32;16.60;;;9.93;;
43070;SDS011;36278;47.952;21.714;2024-01-06T14:14:57;17.87;;;10.37;;
43070;SDS011;36278;47.952;21.714;2024-01-06T14:17:23;17.07;;;9.77;;
43070;SDS011;36278;47.952;21.714;2024-01-06T14:19:49;17.10;;;10.63;;